Time;durP1;ratioP1;P1;durP2;ratioP2;P2;SDS_P1;SDS_P2;PMS_P1;PMS_P2;Temp;Humidity;BMP_temperature;BMP_pressure;BME280_temperature;BME280_humidity;BME280_pressure;Samples;Min_cycle;Max_cycle;Signal;HPM_P1;HPM_P2
2021/10/28 00:14:01;;;;;;;39.30;22.03;;;;;;;2.57;100.00;100940.02;1688479;85;21064;-67
2021/10/28 00:16:31;;;;;;;32.87;20.80;;;;;;;2.59;100.00;100939.94;1688632;85;21568;-67
2021/10/28 00:19:01;;;;;;;38.57;21.67;;;;;;;2.58;100.00;100929.70;1665644;85;21597;-67
2021/10/28 00:21:33;;;;;;;39.87;22.17;;;;;;;2.58;100.00;100924.86;1688750;85;21087;-67
2021/10/28 00:24:03;;;;;;;35.50;22.10;;;;;;;2.56;100.00;100929.44;1688755;85;21047;-68
2021/10/28 00:26:34;;;;;;;41.03;21.40;;;;;;;2.54;100.00;100918.85;1688667;85;21029;-66
2021/10/28 00:29:04;;;;;;;38.93;21.83;;;;;;;2.54;100.00;100917.52;1688577;85;20992;-67
2021/10/28 00:31:34;;;;;;;36.20;21.37;;;;;;;2.54;100.00;100912.66;1589240;89;21092;-67
2021/10/28 00:34:03;;;;;;;32.30;20.23;;;;;;;2.54;100.00;100920.67;1615560;86;21045;-67
2021/10/28 00:36:32;;;;;;;35.20;19.83;;;;;;;2.53;100.00;100917.12;1646724;86;21606;-68
2021/10/28 00:38:59;;;;;;;34.50;19.90;;;;;;;2.54;100.00;100920.67;1647412;86;21073;-67
2021/10/28 00:41:26;;;;;;;36.80;21.60;;;;;;;2.52;100.00;100920.77;1669875;86;21082;-66
2021/10/28 00:43:56;;;;;;;37.90;23.63;;;;;;;2.49;100.00;100920.95;1661007;86;20985;-67
2021/10/28 00:46:25;;;;;;;39.47;24.70;;;;;;;2.50;100.00;100919.13;1642758;87;21002;-67
2021/10/28 00:48:52;;;;;;;36.70;22.53;;;;;;;2.51;100.00;100915.03;1620857;87;21018;-65
2021/10/28 00:51:22;;;;;;;41.13;22.83;;;;;;;2.53;100.00;100920.28;1650764;87;21142;-66
2021/10/28 00:53:50;;;;;;;39.57;22.70;;;;;;;2.53;100.00;100914.45;1632316;87;21130;-66
2021/10/28 00:56:17;;;;;;;38.73;22.93;;;;;;;2.55;100.00;100921.03;1654287;87;21619;-67
2021/10/28 00:58:45;;;;;;;48.27;24.67;;;;;;;2.53;100.00;100913.12;1654523;87;21115;-65
2021/10/28 01:01:12;;;;;;;43.30;23.20;;;;;;;2.48;100.00;100913.92;1632470;87;21536;-66
2021/10/28 01:03:39;;;;;;;44.23;24.27;;;;;;;2.43;100.00;100915.53;1631514;86;21058;-67
2021/10/28 01:06:08;;;;;;;44.20;24.83;;;;;;;2.37;100.00;100917.23;1646289;86;21097;-67
2021/10/28 01:08:41;;;;;;;45.03;24.00;;;;;;;2.31;100.00;100918.13;1646704;87;21121;-68
2021/10/28 01:11:09;;;;;;;41.20;24.67;;;;;;;2.26;100.00;100918.41;1627890;88;21076;-67
2021/10/28 01:13:36;;;;;;;43.10;23.30;;;;;;;2.21;100.00;100922.72;1606753;88;21025;-67
2021/10/28 01:16:04;;;;;;;41.27;23.80;;;;;;;2.16;100.00;100926.14;1627862;88;21064;-67
2021/10/28 01:18:33;;;;;;;40.13;23.73;;;;;;;2.12;100.00;100923.27;1606377;88;21085;-67
2021/10/28 01:21:00;;;;;;;45.30;23.63;;;;;;;2.07;100.00;100922.69;1628083;88;21068;-68
2021/10/28 01:23:27;;;;;;;43.43;25.43;;;;;;;2.01;100.00;100921.75;1628284;88;21549;-67
2021/10/28 01:25:59;;;;;;;43.30;24.10;;;;;;;1.96;100.00;100923.84;1606441;88;21096;-66
2021/10/28 01:28:29;;;;;;;42.00;23.83;;;;;;;1.91;100.00;100921.44;1686605;83;20988;-67
2021/10/28 01:30:59;;;;;;;45.97;25.97;;;;;;;1.87;100.00;100914.09;1709925;83;21086;-67
2021/10/28 01:33:26;;;;;;;45.77;26.90;;;;;;;1.84;100.00;100913.43;1709782;83;20995;-65
2021/10/28 01:35:55;;;;;;;48.47;27.60;;;;;;;1.82;100.00;100912.67;1709781;83;21071;-66
2021/10/28 01:38:22;;;;;;;45.97;27.37;;;;;;;1.79;100.00;100912.39;1709832;83;20980;-67
2021/10/28 01:41:02;;;;;;;48.10;27.20;;;;;;;1.78;100.00;100920.48;1734086;83;21036;-66
2021/10/28 01:43:31;;;;;;;49.83;27.77;;;;;;;1.74;100.00;100918.48;1730904;83;20970;-66
2021/10/28 01:45:58;;;;;;;40.63;23.70;;;;;;;1.70;100.00;100919.63;1713868;84;21045;-67
2021/10/28 01:48:26;;;;;;;40.43;24.73;;;;;;;1.64;100.00;100918.64;1713873;84;21068;-67
2021/10/28 01:50:53;;;;;;;41.63;24.90;;;;;;;1.58;100.00;100915.03;1724624;83;21612;-68
2021/10/28 01:53:21;;;;;;;44.93;25.97;;;;;;;1.53;100.00;100917.95;1747233;82;21044;-67
2021/10/28 01:55:47;;;;;;;44.60;25.77;;;;;;;1.49;100.00;100923.09;1722303;82;21044;-66
2021/10/28 01:58:16;;;;;;;50.10;27.93;;;;;;;1.45;100.00;100921.09;1722312;82;21461;-66
2021/10/28 02:00:44;;;;;;;52.37;28.97;;;;;;;1.44;100.00;100928.69;1747136;82;21114;-67
2021/10/28 02:03:11;;;;;;;58.87;29.00;;;;;;;1.43;100.00;100934.95;1722455;82;21069;-68
2021/10/28 02:05:38;;;;;;;47.40;26.87;;;;;;;1.39;100.00;100932.09;1749388;80;21540;-66
2021/10/28 02:08:06;;;;;;;57.23;28.70;;;;;;;1.36;100.00;100934.08;1715378;83;21043;-66
2021/10/28 02:10:35;;;;;;;50.43;28.77;;;;;;;1.32;100.00;100936.07;1723089;83;21472;-67
2021/10/28 02:13:02;;;;;;;45.67;27.07;;;;;;;1.27;100.00;100936.81;1723474;83;21058;-67
2021/10/28 02:15:29;;;;;;;47.60;27.77;;;;;;;1.23;100.00;100937.95;1734829;83;21118;-67
2021/10/28 02:17:57;;;;;;;44.57;26.80;;;;;;;1.21;100.00;100947.84;1723249;83;20991;-67
2021/10/28 02:20:24;;;;;;;41.07;25.97;;;;;;;1.23;100.00;100952.12;1710956;83;21499;-67
2021/10/28 02:22:52;;;;;;;44.07;26.67;;;;;;;1.24;100.00;100950.30;1723512;83;21046;-67
2021/10/28 02:25:19;;;;;;;40.93;25.23;;;;;;;1.25;100.00;100949.37;1723193;83;21027;-66
2021/10/28 02:27:54;;;;;;;43.93;26.50;;;;;;;1.23;100.00;100952.59;1723167;83;21054;-67
2021/10/28 02:30:21;;;;;;;45.97;28.07;;;;;;;1.18;100.00;100950.67;1710791;83;21496;-66
2021/10/28 02:32:47;;;;;;;45.03;26.87;;;;;;;1.13;100.00;100951.80;1710892;83;20980;-66
2021/10/28 02:35:15;;;;;;;44.03;26.47;;;;;;;1.09;100.00;100947.58;1687241;83;21043;-67
2021/10/28 02:37:43;;;;;;;44.50;26.10;;;;;;;1.07;100.00;100947.30;1710374;83;21102;-67
2021/10/28 02:40:12;;;;;;;46.10;26.43;;;;;;;1.04;100.00;100944.31;1710792;83;21027;-66
2021/10/28 02:42:41;;;;;;;45.80;25.97;;;;;;;1.04;100.00;100954.12;1687198;83;21101;-67
2021/10/28 02:45:09;;;;;;;49.23;28.90;;;;;;;1.04;100.00;100953.64;1745012;82;21029;-66
2021/10/28 02:47:37;;;;;;;55.20;31.07;;;;;;;1.03;100.00;100960.41;1713769;83;21001;-67
2021/10/28 02:50:05;;;;;;;50.80;30.63;;;;;;;1.04;100.00;100956.78;1725943;83;21063;-66
2021/10/28 02:52:34;;;;;;;50.80;31.13;;;;;;;1.04;100.00;100965.63;1756786;82;21084;-67
2021/10/28 02:55:04;;;;;;;51.40;29.67;;;;;;;1.02;100.00;100958.20;1756628;82;21035;-67
2021/10/28 02:57:32;;;;;;;50.63;29.00;;;;;;;1.00;100.00;100960.09;1756788;82;21040;-66
2021/10/28 02:59:59;;;;;;;49.83;30.17;;;;;;;1.01;100.00;100964.94;1756602;82;21513;-67
2021/10/28 03:02:26;;;;;;;48.40;28.27;;;;;;;0.99;100.00;100960.18;1757094;82;21075;-68
2021/10/28 03:04:54;;;;;;;49.27;29.10;;;;;;;0.96;100.00;100962.56;1753129;82;21130;-66
2021/10/28 03:07:21;;;;;;;49.20;28.80;;;;;;;0.93;100.00;100958.73;1748403;82;21021;-65
2021/10/28 03:09:48;;;;;;;50.60;29.07;;;;;;;0.91;100.00;100963.28;1718871;82;21533;-67
2021/10/28 03:12:15;;;;;;;57.40;29.70;;;;;;;0.91;100.00;100965.95;1748274;82;21068;-67
2021/10/28 03:14:51;;;;;;;60.07;32.50;;;;;;;0.92;100.00;100967.65;1748258;82;21028;-67
2021/10/28 03:27:48;;;;;;;47.20;27.77;;;;;;;0.94;100.00;100975.10;1722153;83;21527;-66
2021/10/28 03:30:15;;;;;;;47.73;28.80;;;;;;;0.94;100.00;100972.44;1722147;83;21027;-67
2021/10/28 03:32:42;;;;;;;49.47;28.53;;;;;;;0.96;100.00;100975.87;1722221;83;21512;-66
2021/10/28 03:35:12;;;;;;;52.87;29.13;;;;;;;0.98;100.00;100973.13;1722017;83;21071;-67
2021/10/28 03:37:44;;;;;;;47.30;28.40;;;;;;;1.01;100.00;100979.59;1722262;83;21109;-66
2021/10/28 04:20:42;;;;;;;80.27;41.40;;;;;;;1.40;100.00;100980.47;1764290;80;21000;-70
2021/10/28 04:31:06;;;;;;;68.70;34.80;;;;;;;1.36;100.00;100989.56;1663539;86;21102;-70
2021/10/28 04:33:39;;;;;;;65.20;36.83;;;;;;;1.34;100.00;101000.79;1640938;86;20996;-68
2021/10/28 04:36:04;;;;;;;66.63;34.63;;;;;;;1.29;100.00;100998.41;1660078;86;21043;-68
2021/10/28 04:38:31;;;;;;;66.77;35.53;;;;;;;1.25;100.00;101002.17;1615165;86;21025;-70
2021/10/28 04:40:58;;;;;;;62.23;34.43;;;;;;;1.22;100.00;101006.37;1640995;86;21055;-70
2021/10/28 04:43:25;;;;;;;62.43;33.60;;;;;;;1.20;100.00;101011.38;1660590;86;21047;-70
2021/10/28 04:45:53;;;;;;;69.20;35.93;;;;;;;1.17;100.00;101008.43;1640511;87;21129;-69
2021/10/28 04:48:19;;;;;;;65.40;34.47;;;;;;;1.20;100.00;101018.04;1640658;87;21069;-70
2021/10/28 04:50:48;;;;;;;63.00;35.33;;;;;;;1.21;100.00;101014.44;1618855;87;21108;-70
2021/10/28 04:53:15;;;;;;;67.07;34.93;;;;;;;1.22;100.00;101013.03;1640618;87;21156;-69
2021/10/28 04:55:44;;;;;;;63.07;34.90;;;;;;;1.21;100.00;101009.97;1640683;87;21099;-68
2021/10/28 04:58:11;;;;;;;63.93;35.03;;;;;;;1.20;100.00;101004.23;1618788;87;21121;-69
2021/10/28 05:00:38;;;;;;;71.33;36.70;;;;;;;1.21;100.00;101007.30;1640410;87;21084;-69
2021/10/28 05:03:05;;;;;;;65.33;35.37;;;;;;;1.24;100.00;101006.25;1641115;81;21621;-69
2021/10/28 05:05:33;;;;;;;64.40;37.37;;;;;;;1.28;100.00;101007.34;1767678;80;21638;-68
2021/10/28 05:08:00;;;;;;;68.07;36.50;;;;;;;1.38;100.00;101004.13;1741860;81;21059;-68
2021/10/28 05:10:30;;;;;;;64.43;36.70;;;;;;;1.47;100.00;101006.27;1733370;83;21078;-67
2021/10/28 05:12:57;;;;;;;63.10;37.17;;;;;;;1.54;100.00;101010.32;1703014;83;21880;-70
2021/10/28 05:15:24;;;;;;;67.73;38.60;;;;;;;1.56;100.00;101015.08;1703469;83;21032;-69
2021/10/28 05:17:51;;;;;;;79.47;47.53;;;;;;;1.56;100.00;101007.53;1703276;83;21084;-68
2021/10/28 05:20:19;;;;;;;75.67;43.10;;;;;;;1.58;100.00;101013.66;1727555;83;21016;-70
2021/10/28 05:22:46;;;;;;;73.70;41.00;;;;;;;1.58;100.00;101018.52;1727094;83;21079;-69
2021/10/28 05:25:14;;;;;;;58.47;34.13;;;;;;;1.60;100.00;101021.94;1727634;83;21102;-68
2021/10/28 05:27:42;;;;;;;71.00;36.37;;;;;;;1.66;100.00;101018.05;1727494;83;21544;-69
2021/10/28 05:30:11;;;;;;;65.33;38.33;;;;;;;1.73;100.00;101022.56;1727740;83;21540;-69
2021/10/28 05:32:38;;;;;;;69.97;39.67;;;;;;;1.75;100.00;101025.50;1728000;83;21051;-69
2021/10/28 05:35:06;;;;;;;75.37;40.97;;;;;;;1.78;100.00;101029.82;1727784;83;21055;-68
2021/10/28 05:37:34;;;;;;;79.60;41.67;;;;;;;1.80;100.00;101036.77;1703036;83;21068;-69
2021/10/28 05:40:03;;;;;;;71.33;39.30;;;;;;;1.84;100.00;101042.33;1727645;83;21064;-69
2021/10/28 05:42:31;;;;;;;62.77;37.07;;;;;;;1.90;100.00;101039.28;1727530;83;21056;-69
2021/10/28 05:44:58;;;;;;;69.90;38.00;;;;;;;1.97;100.00;101038.45;1729022;83;21001;-69
2021/10/28 05:47:25;;;;;;;75.53;39.07;;;;;;;2.03;100.00;101038.06;1729289;83;21216;-69
2021/10/28 05:49:53;;;;;;;64.80;39.13;;;;;;;2.09;100.00;101043.54;1729461;83;21017;-69
2021/10/28 05:52:20;;;;;;;66.67;40.27;;;;;;;2.13;100.00;101045.55;1729267;83;21046;-69
2021/10/28 05:54:47;;;;;;;67.90;40.93;;;;;;;2.19;100.00;101044.67;1729292;83;21534;-69
2021/10/28 05:57:14;;;;;;;74.73;42.43;;;;;;;2.26;100.00;101042.02;1731837;82;21029;-70
2021/10/28 05:59:42;;;;;;;83.90;37.73;;;;;;;2.41;100.00;101048.73;1717208;82;21002;-69
2021/10/28 06:02:09;;;;;;;73.67;37.33;;;;;;;2.55;100.00;101046.07;1731717;82;21072;-68
2021/10/28 06:04:37;;;;;;;61.73;39.20;;;;;;;2.71;100.00;101045.98;1736115;82;21526;-70
2021/10/28 06:07:04;;;;;;;60.60;36.53;;;;;;;2.85;100.00;101047.30;1726766;82;21123;-69
2021/10/28 06:09:31;;;;;;;62.23;37.57;;;;;;;2.97;100.00;101045.65;1747773;81;21013;-69
2021/10/28 06:12:00;;;;;;;58.17;36.57;;;;;;;3.08;100.00;101049.00;1748122;81;21363;-70
2021/10/28 06:14:28;;;;;;;88.77;51.37;;;;;;;3.14;100.00;101043.73;1739761;82;21014;-69
2021/10/28 06:17:05;;;;;;;71.77;45.80;;;;;;;3.20;100.00;101045.51;1770420;81;21050;-70
2021/10/28 06:19:25;;;;;;;86.53;56.13;;;;;;;3.26;100.00;101045.61;1767885;81;21054;-69
2021/10/28 06:21:52;;;;;;;93.10;65.57;;;;;;;3.33;100.00;101050.94;1769109;81;21053;-69
2021/10/28 06:24:20;;;;;;;139.97;74.23;;;;;;;3.45;100.00;101055.09;1726369;82;21046;-69
2021/10/28 06:26:48;;;;;;;116.73;69.20;;;;;;;3.61;100.00;101066.04;1754236;81;21037;-69
2021/10/28 06:29:15;;;;;;;124.60;72.37;;;;;;;3.84;100.00;101061.45;1730026;81;20973;-68
2021/10/28 06:31:43;;;;;;;96.37;64.13;;;;;;;4.04;100.00;101054.73;1734552;81;21017;-70
2021/10/28 06:34:18;;;;;;;79.90;55.63;;;;;;;4.22;100.00;101049.98;1735117;81;20993;-69
2021/10/28 06:36:39;;;;;;;59.53;40.63;;;;;;;4.36;100.00;101045.86;1758726;81;21020;-71
2021/10/28 06:39:06;;;;;;;52.83;34.67;;;;;;;4.46;100.00;101040.25;1744803;80;21073;-69
2021/10/28 06:41:33;;;;;;;53.13;32.10;;;;;;;4.56;100.00;101033.25;1717710;83;21505;-70
2021/10/28 06:44:00;;;;;;;57.37;31.53;;;;;;;4.61;100.00;101028.08;1732829;81;21004;-71
2021/10/28 06:46:28;;;;;;;50.17;30.00;;;;;;;4.64;100.00;101027.37;1780588;80;21031;-69
2021/10/28 06:48:55;;;;;;;55.17;33.53;;;;;;;4.70;100.00;101042.16;1781765;80;21023;-68
2021/10/28 06:51:23;;;;;;;52.23;31.53;;;;;;;4.75;100.00;101052.91;1776771;80;20979;-69
2021/10/28 06:54:06;;;;;;;49.17;30.90;;;;;;;4.86;100.00;101059.34;1786348;80;21046;-69
2021/10/28 06:56:54;;;;;;;50.93;32.97;;;;;;;4.98;100.00;101058.47;1754871;80;21054;-69
2021/10/28 07:04:35;;;;;;;71.73;41.43;;;;;;;5.32;100.00;101054.67;1785826;80;21029;-70
2021/10/28 07:07:02;;;;;;;55.10;35.47;;;;;;;5.48;100.00;101049.05;1771752;80;21038;-70
2021/10/28 07:14:29;;;;;;;73.83;42.73;;;;;;;5.68;100.00;101040.37;1588301;90;21047;-70
2021/10/28 07:19:50;;;;;;;77.70;46.23;;;;;;;5.76;100.00;101034.91;1582153;90;21136;-69
2021/10/28 07:32:33;;;;;;;70.70;44.42;;;;;;;5.79;100.00;101003.80;1585755;89;21068;-72
2021/10/28 08:15:41;;;;;;;70.53;43.30;;;;;;;9.99;100.00;100917.42;1729689;80;21058;-70
2021/10/28 08:31:07;;;;;;;60.13;38.87;;;;;;;10.31;100.00;100916.20;1689920;84;21026;-70
2021/10/28 08:33:34;;;;;;;56.73;36.33;;;;;;;10.66;100.00;100918.20;1700138;84;21017;-69
2021/10/28 08:38:40;;;;;;;68.83;47.07;;;;;;;10.61;100.00;100919.16;1607809;88;21062;-71
2021/10/28 08:41:09;;;;;;;71.17;46.80;;;;;;;10.68;100.00;100922.09;1609089;89;21725;-71
2021/10/28 08:43:38;;;;;;;59.65;39.80;;;;;;;10.86;100.00;100916.75;1608276;89;21102;-71
2021/10/28 08:46:09;;;;;;;52.35;34.92;;;;;;;11.05;100.00;100912.56;1609915;89;21082;-70
2021/10/28 08:48:40;;;;;;;43.65;28.05;;;;;;;11.29;100.00;100908.39;1608663;89;21174;-70
2021/10/28 08:51:15;;;;;;;137.88;73.42;;;;;;;11.62;100.00;100907.34;1609452;89;21089;-66
2021/10/28 09:24:26;;;;;;;33.60;18.07;;;;;;;12.21;100.00;100881.85;1524679;92;21078;-73
2021/10/28 09:27:06;;;;;;;34.58;19.12;;;;;;;12.29;100.00;100869.70;1546008;92;21123;-71
2021/10/28 09:29:37;;;;;;;29.37;16.25;;;;;;;12.40;100.00;100872.11;1540222;92;21095;-71
2021/10/28 09:32:23;;;;;;;35.70;20.25;;;;;;;12.72;100.00;100861.05;1559222;92;21080;-71
2021/10/28 09:52:01;;;;;;;37.95;17.55;;;;;;;12.95;100.00;100843.63;1501791;95;21615;-72
2021/10/28 09:59:53;;;;;;;24.25;14.58;;;;;;;13.23;100.00;100837.37;1438091;100;21119;-72
2021/10/28 10:02:33;;;;;;;21.35;12.63;;;;;;;13.30;100.00;100826.17;1437493;100;21123;-71
2021/10/28 10:07:39;;;;;;;25.95;13.55;;;;;;;13.00;100.00;100830.92;1346289;105;21200;-70
2021/10/28 10:10:07;;;;;;;27.20;14.85;;;;;;;12.96;100.00;100835.84;1345783;107;21162;-68
2021/10/28 10:12:34;;;;;;;28.07;16.93;;;;;;;13.03;100.00;100830.56;1357019;105;21135;-70
2021/10/28 10:15:02;;;;;;;27.32;14.38;;;;;;;13.14;100.00;100830.25;1364282;105;21131;-71
2021/10/28 10:17:30;;;;;;;25.72;14.63;;;;;;;13.18;100.00;100836.19;1366520;105;21136;-72
2021/10/28 10:19:59;;;;;;;25.75;15.03;;;;;;;13.18;100.00;100829.41;1374520;102;21086;-71
2021/10/28 10:28:55;;;;;;;75.52;35.33;;;;;;;13.22;100.00;100807.16;1322649;107;21182;-73
2021/10/28 12:01:46;;;;;;;110.20;42.30;;;;;;;13.41;100.00;100746.76;1547692;93;21109;-72
2021/10/28 12:46:26;;;;;;;23.77;14.98;;;;;;;12.56;100.00;100708.56;1511051;95;21113;-68
2021/10/28 13:48:20;;;;;;;32.40;22.00;;;;;;;12.48;100.00;100720.75;1518281;94;21144;-70
2021/10/28 13:49:07;;;;;;;37.48;18.20;;;;;;;12.45;100.00;100724.66;1524915;93;21115;-70
2021/10/28 13:51:54;;;;;;;36.42;17.62;;;;;;;12.43;100.00;100724.47;1527411;93;21069;-70
2021/10/28 13:59:55;;;;;;;30.95;18.65;;;;;;;12.37;100.00;100720.56;1504076;93;21092;-70
2021/10/28 14:21:44;;;;;;;32.23;17.90;;;;;;;12.17;100.00;100723.23;1695066;83;21589;-72
2021/10/28 14:29:53;;;;;;;31.70;17.75;;;;;;;12.10;100.00;100732.02;1692868;83;21085;-71
2021/10/28 14:32:40;;;;;;;36.70;23.67;;;;;;;12.08;100.00;100730.49;1709011;83;21522;-73
2021/10/28 15:02:15;;;;;;;35.98;22.90;;;;;;;11.90;100.00;100719.73;1734753;82;21003;-69
2021/10/28 15:29:26;;;;;;;44.33;25.52;;;;;;;11.82;100.00;100737.30;1699608;83;20987;-71
2021/10/28 15:35:01;;;;;;;41.05;24.40;;;;;;;11.80;100.00;100739.32;1704851;84;21026;-70
2021/10/28 15:37:52;;;;;;;37.75;23.07;;;;;;;11.78;100.00;100737.61;1688112;83;21018;-70
2021/10/28 15:53:26;;;;;;;40.45;22.80;;;;;;;11.80;100.00;100736.09;1704803;83;21530;-70
2021/10/28 15:58:52;;;;;;;34.30;21.12;;;;;;;11.80;100.00;100737.97;1711802;83;21003;-70
2021/10/28 16:01:14;;;;;;;31.02;20.25;;;;;;;11.80;100.00;100744.73;1712553;83;21636;-70
2021/10/28 16:22:42;;;;;;;53.38;32.95;;;;;;;11.73;100.00;100753.49;1615622;87;21042;-69
2021/10/28 16:25:10;;;;;;;51.85;30.92;;;;;;;11.71;100.00;100751.97;1666589;86;21023;-70
2021/10/28 16:27:38;;;;;;;51.83;30.40;;;;;;;11.71;100.00;100751.97;1652496;87;21116;-69
2021/10/28 16:30:08;;;;;;;58.10;33.00;;;;;;;11.70;100.00;100756.52;1630051;87;21087;-70
2021/10/28 16:32:35;;;;;;;49.83;31.23;;;;;;;11.70;100.00;100764.64;1630613;87;21031;-70
2021/10/28 16:35:05;;;;;;;48.33;29.45;;;;;;;11.71;100.00;100762.30;1630260;87;21103;-68
2021/10/28 16:37:34;;;;;;;49.83;27.58;;;;;;;11.70;100.00;100767.87;1652268;87;21124;-70
2021/10/28 16:40:04;;;;;;;44.73;26.50;;;;;;;11.70;100.00;100766.00;1630565;87;21612;-70
2021/10/28 16:42:32;;;;;;;43.28;26.68;;;;;;;11.70;100.00;100757.03;1648112;87;21062;-69
2021/10/28 16:44:59;;;;;;;44.50;26.57;;;;;;;11.69;100.00;100759.42;1649007;87;21030;-70
2021/10/28 16:47:27;;;;;;;47.05;26.73;;;;;;;11.68;100.00;100768.02;1687662;82;21051;-70
2021/10/28 16:49:54;;;;;;;48.55;28.87;;;;;;;11.68;100.00;100758.55;1706970;82;21067;-70
2021/10/28 16:52:21;;;;;;;101.58;48.95;;;;;;;11.69;100.00;100767.03;1725751;83;21048;-71
2021/10/28 16:54:48;;;;;;;145.57;69.15;;;;;;;11.70;100.00;100769.22;1725718;83;21028;-70
2021/10/28 16:57:15;;;;;;;66.82;36.70;;;;;;;11.71;100.00;100765.00;1701891;83;21028;-70
2021/10/28 16:59:44;;;;;;;57.93;30.57;;;;;;;11.72;100.00;100765.84;1725028;83;21071;-69
2021/10/28 17:02:12;;;;;;;49.45;26.95;;;;;;;11.72;100.00;100769.42;1701696;83;21540;-70
2021/10/28 17:04:39;;;;;;;49.27;27.27;;;;;;;11.73;100.00;100762.14;1677893;83;21027;-69
2021/10/28 17:07:06;;;;;;;48.50;27.77;;;;;;;11.72;100.00;100763.13;1726057;83;21048;-70
2021/10/28 17:09:33;;;;;;;43.40;22.30;;;;;;;11.70;100.00;100757.88;1725526;83;21055;-70
2021/10/28 17:12:01;;;;;;;45.92;24.92;;;;;;;11.68;100.00;100746.35;1725857;83;21034;-69
2021/10/28 17:14:30;;;;;;;35.78;21.93;;;;;;;11.63;100.00;100756.81;1701759;83;21001;-69
2021/10/28 17:16:57;;;;;;;37.38;21.25;;;;;;;11.58;100.00;100760.02;1725894;83;21072;-69
2021/10/28 17:19:24;;;;;;;37.38;22.87;;;;;;;11.54;100.00;100760.49;1701981;83;21044;-69
2021/10/28 17:21:51;;;;;;;41.83;24.92;;;;;;;11.47;100.00;100762.14;1726021;83;21099;-69
2021/10/28 17:24:33;;;;;;;44.90;28.70;;;;;;;11.40;100.00;100763.27;1726237;83;21560;-69
2021/10/28 17:26:53;;;;;;;41.80;26.23;;;;;;;11.33;100.00;100760.38;1722623;83;20993;-70
2021/10/28 17:29:21;;;;;;;38.53;25.75;;;;;;;11.26;100.00;100759.80;1701623;83;21088;-70
2021/10/28 17:31:51;;;;;;;36.08;22.17;;;;;;;11.21;100.00;100765.70;1725865;83;21099;-70
2021/10/28 17:34:17;;;;;;;41.37;22.32;;;;;;;11.20;100.00;100765.34;1725420;83;21052;-70
2021/10/28 17:36:48;;;;;;;46.40;25.57;;;;;;;11.19;100.00;100763.14;1725898;83;21083;-71
2021/10/28 17:39:13;;;;;;;37.40;23.57;;;;;;;11.20;100.00;100771.59;1722831;83;21043;-70
2021/10/28 17:41:40;;;;;;;42.75;26.30;;;;;;;11.20;100.00;100773.46;1737967;83;21074;-70
2021/10/28 17:44:09;;;;;;;42.78;27.25;;;;;;;11.19;100.00;100768.56;1745541;82;21001;-70
2021/10/28 17:46:36;;;;;;;41.68;26.15;;;;;;;11.19;100.00;100775.33;1731867;82;21099;-70
2021/10/28 17:49:03;;;;;;;42.13;25.88;;;;;;;11.18;100.00;100780.89;1730009;82;21036;-69
2021/10/28 17:51:30;;;;;;;41.05;24.57;;;;;;;11.16;100.00;100776.98;1730323;82;21032;-69
2021/10/28 17:53:57;;;;;;;37.00;24.23;;;;;;;11.14;100.00;100780.36;1755256;82;21056;-70
2021/10/28 17:56:24;;;;;;;37.90;23.73;;;;;;;11.11;100.00;100779.31;1730276;82;21034;-69
2021/10/28 17:58:51;;;;;;;35.90;23.12;;;;;;;11.06;100.00;100777.58;1729776;82;21036;-70
2021/10/28 18:01:20;;;;;;;38.78;24.12;;;;;;;11.01;100.00;100782.13;1755022;82;20996;-70
2021/10/28 18:03:47;;;;;;;36.10;22.07;;;;;;;10.92;100.00;100781.67;1731581;82;21095;-69
2021/10/28 18:06:14;;;;;;;36.00;21.93;;;;;;;10.84;100.00;100782.97;1755292;82;20997;-71
2021/10/28 18:08:41;;;;;;;36.28;21.85;;;;;;;10.79;100.00;100786.13;1727086;82;21076;-70
2021/10/28 18:11:08;;;;;;;38.67;22.02;;;;;;;10.73;100.00;100783.19;1722583;82;21060;-70
2021/10/28 18:13:35;;;;;;;35.08;22.93;;;;;;;10.67;100.00;100798.69;1723209;82;21091;-69
2021/10/28 18:16:05;;;;;;;33.38;20.75;;;;;;;10.59;100.00;100794.89;1722863;82;21063;-69
2021/10/28 18:18:35;;;;;;;36.35;21.82;;;;;;;10.56;100.00;100805.17;1722901;82;21525;-69
2021/10/28 18:21:03;;;;;;;35.33;19.95;;;;;;;10.52;100.00;100796.52;1751587;82;21016;-69
2021/10/28 18:23:32;;;;;;;30.62;17.92;;;;;;;10.50;100.00;100801.23;1751371;82;21076;-70
2021/10/28 18:25:59;;;;;;;32.67;19.42;;;;;;;10.48;100.00;100803.20;1722827;82;21533;-70
2021/10/28 18:28:26;;;;;;;30.50;18.30;;;;;;;10.46;100.00;100807.91;1751556;82;21298;-70
2021/10/28 18:30:53;;;;;;;30.80;18.75;;;;;;;10.43;100.00;100802.33;1722742;82;21031;-71
2021/10/28 18:33:21;;;;;;;32.35;20.23;;;;;;;10.37;100.00;100812.38;1751245;82;21052;-70
2021/10/28 18:35:48;;;;;;;29.60;18.98;;;;;;;10.32;100.00;100816.03;1722955;82;21045;-69
2021/10/28 18:38:15;;;;;;;30.55;19.87;;;;;;;10.25;100.00;100811.72;1722672;82;21084;-70
2021/10/28 18:40:43;;;;;;;29.75;19.12;;;;;;;10.20;100.00;100814.53;1722863;82;21056;-71
2021/10/28 18:43:10;;;;;;;34.20;18.92;;;;;;;10.16;100.00;100822.56;1722784;82;21489;-71
2021/10/28 18:45:39;;;;;;;39.35;19.67;;;;;;;10.09;100.00;100818.25;1765078;81;21580;-70
2021/10/28 18:48:06;;;;;;;29.37;19.32;;;;;;;10.04;100.00;100821.92;1736887;81;21044;-70
2021/10/28 18:50:33;;;;;;;31.42;20.55;;;;;;;9.99;100.00;100823.70;1723525;83;21046;-70
2021/10/28 18:53:00;;;;;;;32.20;18.87;;;;;;;9.94;100.00;100834.10;1699275;83;21074;-70
2021/10/28 18:55:27;;;;;;;28.57;17.90;;;;;;;9.92;100.00;100837.45;1699726;83;21074;-69
2021/10/28 18:57:54;;;;;;;32.23;19.73;;;;;;;9.94;100.00;100836.80;1730113;83;21476;-69
2021/10/28 19:00:22;;;;;;;29.95;19.27;;;;;;;9.96;100.00;100838.85;1730911;83;21098;-70
2021/10/28 19:02:52;;;;;;;31.57;20.30;;;;;;;9.99;100.00;100845.83;1731444;83;21012;-70
2021/10/28 19:05:21;;;;;;;31.52;20.35;;;;;;;10.01;100.00;100847.88;1731011;83;21047;-71
2021/10/28 19:07:48;;;;;;;30.70;18.92;;;;;;;10.02;100.00;100853.14;1731082;83;21042;-69
2021/10/28 19:10:15;;;;;;;27.55;18.10;;;;;;;10.04;100.00;100859.75;1730585;83;21078;-70
2021/10/28 19:12:43;;;;;;;30.37;19.50;;;;;;;10.08;100.00;100855.23;1730911;83;21086;-70
2021/10/28 19:15:10;;;;;;;33.50;21.07;;;;;;;10.12;100.00;100855.78;1731327;83;21015;-69
2021/10/28 19:17:39;;;;;;;33.20;21.42;;;;;;;10.15;100.00;100862.26;1730933;83;21045;-70
2021/10/28 19:20:08;;;;;;;33.05;21.42;;;;;;;10.18;100.00;100857.91;1731266;83;20991;-70
2021/10/28 19:22:37;;;;;;;34.45;21.97;;;;;;;10.21;100.00;100860.30;1730939;83;21027;-71
2021/10/28 19:25:05;;;;;;;34.45;21.73;;;;;;;10.24;100.00;100867.27;1700107;83;21004;-71
2021/10/28 19:27:35;;;;;;;31.77;21.07;;;;;;;10.26;100.00;100867.46;1700189;83;21050;-70
2021/10/28 19:32:57;;;;;;;33.88;21.85;;;;;;;10.32;100.00;100874.15;1693479;85;21039;-70
2021/10/28 19:35:23;;;;;;;31.90;21.40;;;;;;;10.32;100.00;100871.45;1693510;85;21011;-71
2021/10/28 19:48:16;;;;;;;34.13;22.02;;;;;;;10.33;100.00;100875.87;1621175;88;21053;-71
2021/10/28 19:50:45;;;;;;;32.73;21.10;;;;;;;10.34;100.00;100875.36;1612286;87;21030;-70
2021/10/28 19:53:12;;;;;;;33.95;21.82;;;;;;;10.34;100.00;100885.69;1649997;87;21022;-71
2021/10/28 19:55:41;;;;;;;34.53;22.40;;;;;;;10.34;100.00;100881.64;1650551;87;21069;-70
2021/10/28 19:58:11;;;;;;;34.85;22.20;;;;;;;10.34;100.00;100888.88;1650230;87;21621;-70
2021/10/28 20:00:41;;;;;;;33.05;21.15;;;;;;;10.33;100.00;100886.68;1650121;87;21081;-71
2021/10/28 20:03:24;;;;;;;32.70;21.30;;;;;;;10.33;100.00;100890.73;1650007;87;21472;-70
2021/10/28 20:21:32;;;;;;;36.08;23.60;;;;;;;10.31;100.00;100889.16;1650429;87;21066;-71
2021/10/28 20:24:00;;;;;;;38.75;26.23;;;;;;;10.28;100.00;100891.64;1649824;87;21081;-70